createdAt,value
2023-01-25T00:02:32.503Z,6.68
2023-01-25T00:05:41.086Z,6.25
2023-01-25T00:08:46.243Z,6.13
2023-01-25T00:11:51.902Z,6.70
2023-01-25T00:14:57.155Z,6.85
2023-01-25T00:18:02.525Z,7.03
2023-01-25T00:21:17.613Z,7.78
2023-01-25T00:24:23.323Z,6.68
2023-01-25T00:27:29.103Z,6.70
2023-01-25T00:30:34.346Z,6.80
2023-01-25T00:33:43.875Z,6.22
2023-01-25T00:36:52.987Z,6.25
2023-01-25T00:39:58.841Z,5.93
2023-01-25T00:43:03.960Z,6.22
2023-01-25T00:46:10.328Z,7.18
2023-01-25T00:49:22.327Z,5.63
2023-01-25T00:52:30.249Z,6.65
2023-01-25T00:55:35.975Z,4.95
2023-01-25T00:58:41.308Z,4.28
2023-01-25T01:01:48.575Z,4.65
2023-01-25T01:04:56.945Z,4.82
2023-01-25T01:08:04.939Z,4.30
2023-01-25T01:11:12.116Z,4.43
2023-01-25T01:14:18.610Z,4.45
2023-01-25T01:17:24.037Z,4.55
2023-01-25T01:20:29.834Z,3.70
2023-01-25T01:23:37.685Z,4.10
2023-01-25T01:26:43.323Z,5.28
2023-01-25T01:29:49.146Z,4.80
2023-01-25T01:32:55.078Z,4.75
2023-01-25T01:36:00.772Z,4.05
2023-01-25T01:39:09.106Z,4.35
2023-01-25T01:42:15.070Z,5.00
2023-01-25T01:45:41.318Z,4.72
2023-01-25T01:48:49.016Z,4.18
2023-01-25T01:51:56.112Z,4.82
2023-01-25T01:55:08.972Z,4.40
2023-01-25T01:58:14.613Z,4.30
2023-01-25T02:01:20.519Z,4.72
2023-01-25T02:04:28.277Z,5.13
2023-01-25T02:07:35.368Z,4.60
2023-01-25T02:10:44.206Z,5.18
2023-01-25T02:13:50.611Z,5.50
2023-01-25T02:16:56.278Z,5.88
2023-01-25T02:20:04.030Z,5.13
2023-01-25T02:23:13.551Z,5.22
2023-01-25T02:26:22.697Z,5.35
2023-01-25T02:29:31.002Z,5.50
2023-01-25T02:32:36.603Z,5.07
2023-01-25T02:35:44.734Z,5.20
2023-01-25T02:38:51.992Z,5.78
2023-01-25T02:42:01.167Z,5.95
2023-01-25T02:45:09.206Z,5.47
2023-01-25T02:48:14.754Z,5.83
2023-01-25T02:51:20.389Z,6.28
2023-01-25T02:54:26.048Z,5.50
2023-01-25T02:57:34.026Z,4.43
2023-01-25T03:00:39.773Z,5.25
2023-01-25T03:03:45.111Z,5.35
2023-01-25T03:06:52.144Z,5.38
2023-01-25T03:09:57.887Z,5.75
2023-01-25T03:13:06.307Z,5.18
2023-01-25T03:16:12.407Z,5.55
2023-01-25T03:19:19.770Z,5.60
2023-01-25T03:22:25.189Z,4.88
2023-01-25T03:25:30.779Z,5.15
2023-01-25T03:28:51.097Z,4.35
2023-01-25T03:31:57.859Z,4.80
2023-01-25T03:35:03.236Z,5.47
2023-01-25T03:38:09.839Z,4.95
2023-01-25T03:41:15.308Z,5.03
2023-01-25T03:44:26.059Z,4.72
2023-01-25T03:47:31.349Z,5.10
2023-01-25T03:50:37.071Z,5.50
2023-01-25T03:53:42.451Z,5.28
2023-01-25T03:56:52.475Z,6.13
2023-01-25T04:00:06.267Z,5.32
2023-01-25T04:03:21.841Z,5.78
2023-01-25T04:06:27.468Z,5.85
2023-01-25T04:09:32.585Z,5.45
2023-01-25T04:12:38.793Z,5.55
2023-01-25T04:15:46.985Z,5.38
2023-01-25T04:19:03.059Z,5.55
2023-01-25T04:22:09.519Z,5.30
2023-01-25T04:25:16.850Z,5.10
2023-01-25T04:28:27.234Z,5.78
2023-01-25T04:31:36.051Z,5.57
2023-01-25T04:34:42.236Z,6.50
2023-01-25T04:37:56.693Z,5.78
2023-01-25T04:41:05.502Z,5.75
2023-01-25T04:44:11.943Z,6.80
2023-01-25T04:47:21.583Z,5.43
2023-01-25T04:50:27.669Z,6.68
2023-01-25T04:53:32.751Z,6.28
2023-01-25T04:56:40.484Z,6.20
2023-01-25T04:59:46.103Z,5.82
2023-01-25T05:02:54.428Z,6.55
2023-01-25T05:06:00.247Z,6.25
2023-01-25T05:09:07.658Z,6.07
2023-01-25T05:12:14.439Z,6.20
2023-01-25T05:15:35.536Z,7.15
2023-01-25T05:18:48.720Z,6.65
2023-01-25T05:22:01.652Z,6.65
2023-01-25T05:25:32.162Z,6.88
2023-01-25T05:28:39.076Z,6.95
2023-01-25T05:31:54.431Z,6.40
2023-01-25T05:35:02.184Z,6.28
2023-01-25T05:38:09.225Z,6.70
2023-01-25T05:41:14.613Z,6.68
2023-01-25T05:44:21.865Z,6.93
2023-01-25T05:47:29.256Z,7.05
2023-01-25T05:50:37.764Z,7.47
2023-01-25T05:53:46.713Z,7.93
2023-01-25T05:56:53.160Z,7.25
2023-01-25T05:59:58.566Z,6.53
2023-01-25T06:03:04.526Z,6.25
2023-01-25T06:06:15.727Z,6.80
2023-01-25T06:09:22.826Z,6.60
2023-01-25T06:12:29.591Z,6.63
2023-01-25T06:15:36.979Z,6.70
2023-01-25T06:19:15.985Z,5.93
2023-01-25T06:22:44.086Z,5.38
2023-01-25T06:25:49.255Z,6.20
2023-01-25T06:28:55.072Z,7.03
2023-01-25T06:32:00.419Z,5.28
2023-01-25T06:35:05.909Z,5.45
2023-01-25T06:38:14.197Z,5.93
2023-01-25T06:41:20.471Z,4.18
2023-01-25T06:44:25.945Z,4.75
2023-01-25T06:47:31.431Z,4.47
2023-01-25T06:50:36.894Z,4.45
2023-01-25T06:53:45.586Z,5.13
2023-01-25T06:56:51.016Z,5.45
2023-01-25T06:59:56.763Z,5.25
2023-01-25T07:03:01.739Z,6.47
2023-01-25T07:06:08.543Z,4.97
2023-01-25T07:09:17.169Z,5.00
2023-01-25T07:12:22.590Z,5.00
2023-01-25T07:15:28.014Z,5.72
2023-01-25T07:18:33.694Z,5.78
2023-01-25T07:21:38.968Z,5.22
2023-01-25T07:24:50.381Z,5.55
2023-01-25T07:27:55.829Z,5.22
2023-01-25T07:31:07.463Z,5.65
2023-01-25T07:34:13.601Z,5.47
2023-01-25T07:37:19.054Z,5.43
2023-01-25T07:40:27.261Z,5.13
2023-01-25T07:43:32.854Z,5.47
2023-01-25T07:46:41.256Z,5.07
2023-01-25T07:49:47.151Z,5.38
2023-01-25T07:52:52.375Z,5.18
2023-01-25T07:56:01.600Z,4.30
2023-01-25T07:59:08.618Z,3.83
2023-01-25T08:02:14.104Z,3.90
2023-01-25T08:05:19.960Z,4.53
2023-01-25T08:08:25.311Z,4.40
2023-01-25T08:11:34.347Z,3.33
2023-01-25T08:14:39.784Z,4.10
2023-01-25T08:17:45.511Z,4.78
2023-01-25T08:20:50.875Z,4.45
2023-01-25T08:23:56.687Z,4.68
2023-01-25T08:27:04.974Z,4.38
2023-01-25T08:30:12.663Z,5.57
2023-01-25T08:33:18.055Z,4.97
2023-01-25T08:36:24.458Z,5.20
2023-01-25T08:39:29.963Z,4.43
2023-01-25T08:42:37.790Z,5.20
2023-01-25T08:45:43.193Z,6.53
2023-01-25T08:48:48.647Z,5.68
2023-01-25T08:51:53.685Z,5.10
2023-01-25T08:54:59.234Z,5.13
2023-01-25T08:58:11.297Z,5.15
2023-01-25T09:01:17.626Z,4.35
2023-01-25T09:04:25.539Z,4.57
2023-01-25T09:07:38.282Z,4.90
2023-01-25T09:10:43.575Z,5.43
2023-01-25T09:13:52.235Z,6.03
2023-01-25T09:16:57.415Z,4.72
2023-01-25T09:20:03.186Z,4.68
2023-01-25T09:23:08.780Z,5.10
2023-01-25T09:26:15.629Z,5.30
2023-01-25T09:29:23.848Z,5.43
2023-01-25T09:32:29.110Z,5.35
2023-01-25T09:35:36.061Z,5.70
2023-01-25T09:38:41.707Z,5.30
2023-01-25T09:42:06.657Z,5.32
2023-01-25T09:45:24.096Z,5.40
2023-01-25T09:48:32.484Z,5.68
2023-01-25T09:51:46.663Z,5.70
2023-01-25T09:54:52.193Z,4.90
2023-01-25T09:58:00.491Z,4.38
2023-01-25T10:04:23.153Z,5.10
2023-01-25T10:07:30.347Z,6.22
2023-01-25T10:10:38.144Z,5.75
2023-01-25T10:13:43.313Z,6.65
2023-01-25T10:16:54.700Z,5.47
2023-01-25T10:20:12.720Z,6.88
2023-01-25T10:23:44.759Z,6.50
2023-01-25T10:26:53.590Z,6.55
2023-01-25T10:30:00.404Z,7.25
2023-01-25T10:33:10.484Z,6.78
2023-01-25T10:36:20.031Z,8.38
2023-01-25T10:39:25.692Z,6.82
2023-01-25T10:42:33.180Z,6.75
2023-01-25T10:45:38.487Z,6.40
2023-01-25T10:48:43.635Z,6.78
2023-01-25T10:51:51.520Z,7.22
2023-01-25T10:55:11.146Z,6.25
2023-01-25T10:58:32.712Z,6.45
2023-01-25T11:01:39.135Z,6.28
2023-01-25T11:04:46.067Z,5.53
2023-01-25T11:07:54.091Z,6.18
2023-01-25T11:10:59.894Z,6.32
2023-01-25T11:14:05.998Z,6.63
2023-01-25T11:17:24.202Z,5.78
2023-01-25T11:20:29.473Z,5.60
2023-01-25T11:23:37.884Z,6.28
2023-01-25T11:26:43.879Z,5.93
2023-01-25T11:29:49.856Z,5.53
2023-01-25T11:32:55.540Z,5.63
2023-01-25T11:36:08.719Z,5.95
2023-01-25T11:39:22.377Z,6.00
2023-01-25T11:42:34.035Z,6.00
2023-01-25T11:46:01.847Z,6.22
2023-01-25T11:49:13.314Z,6.28
2023-01-25T11:52:25.431Z,6.57
2023-01-25T11:55:36.265Z,7.03
2023-01-25T11:59:05.497Z,6.10
2023-01-25T12:02:19.120Z,6.00
2023-01-25T12:05:35.421Z,5.90
2023-01-25T12:08:58.367Z,5.65
2023-01-25T12:12:13.497Z,5.40
2023-01-25T12:15:28.084Z,5.18
2023-01-25T12:18:42.677Z,4.90
2023-01-25T12:22:00.507Z,5.43
2023-01-25T12:25:12.002Z,4.72
2023-01-25T12:28:23.988Z,4.70
2023-01-25T12:31:31.040Z,4.63
2023-01-25T12:34:38.356Z,4.30
2023-01-25T12:37:45.758Z,4.75
2023-01-25T12:40:53.215Z,5.27
2023-01-25T12:44:03.893Z,4.55
2023-01-25T12:47:15.082Z,5.80
2023-01-25T12:50:22.229Z,5.50
2023-01-25T12:53:30.190Z,4.85
2023-01-25T12:56:39.900Z,4.90
2023-01-25T12:59:51.726Z,5.22
2023-01-25T13:03:03.738Z,5.10
2023-01-25T13:06:13.140Z,5.55
2023-01-25T13:09:22.532Z,5.25
2023-01-25T13:12:27.813Z,5.07
2023-01-25T13:15:45.638Z,5.13
2023-01-25T13:18:51.145Z,5.28
2023-01-25T13:21:58.651Z,5.20
2023-01-25T13:25:11.434Z,5.27
2023-01-25T13:28:32.700Z,8.48
2023-01-25T13:31:53.677Z,6.57
2023-01-25T13:35:00.363Z,6.88
2023-01-25T13:38:24.831Z,6.80
2023-01-25T13:41:30.346Z,6.43
2023-01-25T13:44:36.962Z,6.60
2023-01-25T13:47:46.728Z,6.85
2023-01-25T13:50:53.721Z,6.47
2023-01-25T13:53:59.981Z,6.50
2023-01-25T13:57:09.174Z,7.22
2023-01-25T14:00:18.479Z,6.72
2023-01-25T14:03:28.898Z,11.20
2023-01-25T14:06:36.461Z,9.52
2023-01-25T14:09:44.950Z,7.40
2023-01-25T14:12:50.567Z,7.20
2023-01-25T14:15:57.492Z,7.40
2023-01-25T14:19:17.931Z,7.28
2023-01-25T14:22:27.509Z,7.78
2023-01-25T14:25:33.123Z,6.90
2023-01-25T14:28:38.767Z,8.40
2023-01-25T14:31:44.292Z,7.75
2023-01-25T14:34:49.679Z,7.45
2023-01-25T14:37:57.949Z,7.15
2023-01-25T14:41:15.562Z,7.90
2023-01-25T14:44:21.695Z,8.20
2023-01-25T14:47:33.204Z,8.48
2023-01-25T14:50:39.849Z,9.27
2023-01-25T14:53:49.837Z,8.30
2023-01-25T14:56:56.038Z,8.63
2023-01-25T15:00:01.627Z,8.95
2023-01-25T15:03:09.067Z,8.10
2023-01-25T15:06:16.914Z,9.27
2023-01-25T15:09:38.606Z,8.27
2023-01-25T15:12:43.871Z,12.82
2023-01-25T15:15:58.120Z,8.70
2023-01-25T15:19:03.750Z,8.30
2023-01-25T15:22:11.836Z,8.05
2023-01-25T15:25:24.305Z,7.32
2023-01-25T15:28:34.542Z,7.57
2023-01-25T15:31:40.742Z,7.15
2023-01-25T15:34:46.036Z,6.65
2023-01-25T15:37:51.764Z,8.00
2023-01-25T15:41:01.671Z,7.60
2023-01-25T15:44:07.482Z,7.20
2023-01-25T15:47:13.391Z,7.28
2023-01-25T15:50:22.084Z,8.23
2023-01-25T15:56:37.549Z,8.68
2023-01-25T15:59:42.858Z,8.80
2023-01-25T16:02:48.537Z,8.75
2023-01-25T16:05:56.630Z,8.02
2023-01-25T16:09:02.442Z,8.20
2023-01-25T16:12:12.682Z,7.53
2023-01-25T16:15:19.221Z,7.10
2023-01-25T16:18:24.184Z,8.75
2023-01-25T16:21:29.791Z,9.40
2023-01-25T16:24:35.117Z,12.52
2023-01-25T16:27:43.235Z,7.82
2023-01-25T16:30:48.677Z,7.63
2023-01-25T16:33:54.239Z,7.97
2023-01-25T16:37:00.107Z,8.57
2023-01-25T16:40:05.689Z,7.70
2023-01-25T16:43:14.326Z,8.23
2023-01-25T16:46:20.174Z,7.75
2023-01-25T16:49:26.822Z,8.35
2023-01-25T16:52:32.659Z,7.80
2023-01-25T16:55:40.224Z,8.20
2023-01-25T16:58:49.079Z,7.03
2023-01-25T17:01:54.128Z,6.80
2023-01-25T17:04:59.655Z,7.28
2023-01-25T17:08:04.870Z,7.00
2023-01-25T17:11:10.731Z,7.00
2023-01-25T17:14:20.006Z,7.00
2023-01-25T17:17:27.795Z,6.70
2023-01-25T17:20:33.179Z,7.27
2023-01-25T17:23:38.996Z,6.72
2023-01-25T17:26:44.516Z,6.63
2023-01-25T17:29:52.555Z,7.80
2023-01-25T17:32:57.753Z,7.47
2023-01-25T17:36:05.264Z,7.85
2023-01-25T17:39:11.033Z,7.43
2023-01-25T17:42:16.255Z,7.82
2023-01-25T17:45:23.954Z,7.70
2023-01-25T17:48:29.461Z,7.78
2023-01-25T17:51:35.818Z,7.20
2023-01-25T17:54:41.338Z,7.40
2023-01-25T17:57:47.029Z,7.32
2023-01-25T18:01:02.135Z,7.80
2023-01-25T18:04:17.920Z,7.50
2023-01-25T18:07:23.374Z,7.97
2023-01-25T18:10:29.285Z,8.50
2023-01-25T18:13:34.837Z,7.97
2023-01-25T18:16:44.506Z,8.50
2023-01-25T18:19:49.838Z,6.82
2023-01-25T18:22:55.465Z,7.30
2023-01-25T18:26:00.879Z,6.40
2023-01-25T18:29:09.858Z,6.47
2023-01-25T18:32:18.488Z,5.47
2023-01-25T18:38:30.044Z,6.03
2023-01-25T18:41:35.636Z,6.38
2023-01-25T18:44:41.039Z,6.72
2023-01-25T18:47:48.947Z,5.40
2023-01-25T18:50:54.565Z,5.95
2023-01-25T18:54:00.049Z,6.68
2023-01-25T18:57:06.989Z,5.78
2023-01-25T19:00:15.450Z,6.25
2023-01-25T19:03:23.972Z,5.72
2023-01-25T19:06:29.447Z,5.82
2023-01-25T19:09:35.052Z,6.03
2023-01-25T19:12:40.305Z,5.60
2023-01-25T19:15:45.958Z,7.15
2023-01-25T19:18:55.157Z,5.70
2023-01-25T19:22:00.490Z,6.47
2023-01-25T19:25:05.738Z,6.80
2023-01-25T19:28:11.049Z,6.80
2023-01-25T19:31:17.401Z,6.10
2023-01-25T19:34:25.252Z,7.72
2023-01-25T19:37:30.911Z,7.13
2023-01-25T19:40:36.295Z,6.60
2023-01-25T19:43:42.998Z,8.50
2023-01-25T19:46:48.507Z,6.40
2023-01-25T19:49:57.241Z,7.00
2023-01-25T19:53:03.874Z,6.35
2023-01-25T19:56:10.359Z,7.55
2023-01-25T19:59:16.350Z,7.75
2023-01-25T20:02:21.495Z,7.13
2023-01-25T20:05:29.554Z,6.25
2023-01-25T20:08:35.300Z,7.30
2023-01-25T20:11:40.989Z,7.05
2023-01-25T20:14:46.334Z,6.85
2023-01-25T20:17:51.743Z,6.18
2023-01-25T20:21:03.312Z,6.22
2023-01-25T20:24:10.657Z,7.82
2023-01-25T20:27:15.806Z,6.88
2023-01-25T20:30:21.237Z,6.65
2023-01-25T20:33:26.666Z,8.32
2023-01-25T20:36:35.955Z,6.93
2023-01-25T20:39:41.457Z,7.32
2023-01-25T20:42:46.673Z,7.00
2023-01-25T20:45:55.465Z,6.85
2023-01-25T20:49:00.553Z,7.07
2023-01-25T20:52:13.085Z,6.78
2023-01-25T20:55:18.731Z,7.07
2023-01-25T20:58:24.210Z,6.95
2023-01-25T21:01:30.596Z,7.13
2023-01-25T21:04:36.539Z,6.78
2023-01-25T21:07:44.504Z,6.78
2023-01-25T21:10:51.057Z,6.75
2023-01-25T21:13:57.200Z,7.65
2023-01-25T21:17:02.502Z,7.60
2023-01-25T21:20:08.588Z,7.72
2023-01-25T21:23:17.017Z,6.95
2023-01-25T21:26:23.164Z,7.53
2023-01-25T21:29:28.950Z,7.57
2023-01-25T21:32:34.227Z,7.45
2023-01-25T21:35:39.895Z,6.82
2023-01-25T21:38:48.389Z,9.40
2023-01-25T21:45:11.474Z,7.30
2023-01-25T21:48:36.785Z,8.25
2023-01-25T21:51:46.592Z,6.82
2023-01-25T21:54:54.632Z,6.95
2023-01-25T21:57:59.717Z,6.63
2023-01-25T22:01:10.233Z,7.88
2023-01-25T22:04:16.548Z,7.78
2023-01-25T22:07:21.729Z,7.75
2023-01-25T22:10:30.005Z,7.70
2023-01-25T22:13:35.123Z,7.25
2023-01-25T22:16:40.821Z,7.30
2023-01-25T22:19:46.003Z,7.40
2023-01-25T22:22:51.058Z,7.07
2023-01-25T22:26:06.181Z,6.70
2023-01-25T22:29:11.925Z,7.20
2023-01-25T22:32:17.354Z,7.38
2023-01-25T22:35:22.796Z,6.47
2023-01-25T22:38:28.103Z,7.18
2023-01-25T22:41:36.608Z,6.40
2023-01-25T22:47:46.855Z,7.80
2023-01-25T22:50:52.283Z,7.25
2023-01-25T22:53:57.787Z,6.63
2023-01-25T22:57:06.054Z,7.63
2023-01-25T23:00:13.142Z,6.80
2023-01-25T23:03:18.541Z,6.82
2023-01-25T23:06:25.237Z,5.90
2023-01-25T23:09:30.691Z,6.35
2023-01-25T23:12:38.620Z,6.53
2023-01-25T23:15:44.446Z,6.55
2023-01-25T23:18:52.913Z,6.53
2023-01-25T23:21:58.274Z,6.65
2023-01-25T23:25:03.734Z,6.85
2023-01-25T23:28:11.474Z,6.53
2023-01-25T23:31:22.317Z,7.78
2023-01-25T23:34:27.857Z,6.82
2023-01-25T23:37:32.908Z,6.60
2023-01-25T23:40:38.497Z,6.82
2023-01-25T23:43:46.617Z,7.35
2023-01-25T23:49:56.824Z,7.28
2023-01-25T23:53:02.168Z,8.45
2023-01-25T23:56:08.952Z,7.18
2023-01-25T23:59:17.073Z,6.65
